Time;durP1;ratioP1;P1;durP2;ratioP2;P2;SDS_P1;SDS_P2;PMS_P1;PMS_P2;Temp;Humidity;BMP_temperature;BMP_pressure;BME280_temperature;BME280_humidity;BME280_pressure;Samples;Min_cycle;Max_cycle;Signal;HPM_P1;HPM_P2
2023/06/07 18:09:54;;;;;;;8.60;3.53;;;25.40;61.20;;;;;;5082646;28;20329;-62
2023/06/07 18:12:19;;;;;;;6.72;3.35;;;25.80;63.70;;;;;;5053730;28;20025;-60
2023/06/07 18:14:45;;;;;;;7.53;3.10;;;26.30;63.70;;;;;;5069410;28;20025;-60
2023/06/07 18:17:11;;;;;;;7.65;3.20;;;26.70;63.30;;;;;;5061072;28;20072;-61
2023/06/07 18:19:37;;;;;;;8.35;3.22;;;26.80;62.10;;;;;;5048573;28;20382;-61
2023/06/07 18:22:04;;;;;;;7.68;3.40;;;27.10;60.50;;;;;;5048806;28;20381;-60
2023/06/07 18:24:30;;;;;;;7.13;3.30;;;26.70;59.30;;;;;;5080282;28;20025;-61
2023/06/07 18:26:56;;;;;;;7.43;3.30;;;26.50;59.30;;;;;;5048709;28;20021;-61
2023/06/07 18:29:22;;;;;;;8.88;3.60;;;26.50;59.00;;;;;;5048374;28;20451;-61
2023/06/07 18:31:48;;;;;;;6.15;2.90;;;26.50;57.80;;;;;;5056914;28;20025;-61
2023/06/07 18:34:19;;;;;;;6.15;3.28;;;26.60;58.00;;;;;;5068913;28;20054;-61
2023/06/07 18:36:46;;;;;;;6.57;3.70;;;26.70;57.30;;;;;;5057414;28;20112;-60
2023/06/07 18:39:12;;;;;;;7.88;3.22;;;26.60;56.90;;;;;;5068662;28;20025;-60
2023/06/07 18:41:37;;;;;;;6.05;3.38;;;26.40;57.00;;;;;;5068475;28;20047;-61
2023/06/07 18:44:04;;;;;;;7.07;3.47;;;25.80;57.80;;;;;;5059143;28;20087;-62
2023/06/07 18:46:30;;;;;;;8.07;3.80;;;25.20;59.30;;;;;;5048590;28;20373;-60
2023/06/07 18:48:57;;;;;;;9.35;3.40;;;24.70;60.80;;;;;;5048379;28;20022;-61
2023/06/07 18:51:23;;;;;;;7.53;3.28;;;24.30;61.60;;;;;;5063942;28;20074;-62
2023/06/07 18:53:49;;;;;;;8.05;3.03;;;23.90;62.60;;;;;;5068487;28;20028;-62
2023/06/07 18:56:15;;;;;;;9.57;3.60;;;23.60;63.40;;;;;;5068109;28;20021;-61
2023/06/07 18:58:40;;;;;;;8.05;3.90;;;23.40;64.40;;;;;;5067771;28;20040;-61
2023/06/07 19:01:09;;;;;;;9.93;3.80;;;23.20;64.60;;;;;;5066173;28;20039;-60
2023/06/07 19:03:35;;;;;;;8.63;3.15;;;22.90;65.20;;;;;;5066498;28;20060;-60
2023/06/07 19:06:02;;;;;;;8.80;4.03;;;22.80;66.30;;;;;;5065359;28;20106;-61
2023/06/07 19:08:32;;;;;;;6.43;3.70;;;22.60;66.70;;;;;;5064277;28;20045;-61
2023/06/07 19:10:58;;;;;;;7.63;3.40;;;22.40;66.90;;;;;;5068614;28;20025;-60
2023/06/07 19:13:26;;;;;;;9.40;3.80;;;22.30;67.30;;;;;;5089403;28;20047;-60
2023/06/07 19:15:52;;;;;;;9.05;3.35;;;22.20;67.60;;;;;;5096211;28;20377;-60
2023/06/07 19:18:18;;;;;;;10.23;3.80;;;22.00;68.30;;;;;;5087864;28;20024;-60
2023/06/07 19:20:44;;;;;;;8.60;3.90;;;21.80;68.60;;;;;;5058237;28;20035;-61
2023/06/07 19:23:10;;;;;;;5.88;3.50;;;21.70;69.20;;;;;;5065351;28;20080;-59
2023/06/07 19:25:38;;;;;;;10.32;3.85;;;21.60;69.60;;;;;;5074647;28;20025;-62
2023/06/07 19:28:04;;;;;;;7.97;3.30;;;21.50;70.30;;;;;;5079078;28;20123;-61
2023/06/07 19:30:30;;;;;;;9.65;3.42;;;21.40;70.60;;;;;;5094732;28;20099;-61
2023/06/07 19:32:55;;;;;;;9.77;4.05;;;21.30;71.20;;;;;;5094997;28;20027;-61
2023/06/07 19:35:21;;;;;;;6.53;3.60;;;21.20;71.80;;;;;;5094000;28;20576;-61
2023/06/07 19:37:47;;;;;;;10.10;3.67;;;21.10;72.20;;;;;;5075183;28;20047;-61
2023/06/07 19:40:16;;;;;;;7.75;3.42;;;21.00;72.80;;;;;;5053300;28;20385;-61
2023/06/07 19:42:43;;;;;;;8.40;3.75;;;20.90;73.20;;;;;;5070029;28;20029;-61
2023/06/07 19:45:09;;;;;;;7.18;3.72;;;20.80;73.60;;;;;;5054658;28;20013;-63
2023/06/07 19:47:36;;;;;;;7.38;4.18;;;20.70;74.00;;;;;;5054738;28;20029;-59
2023/06/07 19:50:05;;;;;;;11.77;4.28;;;20.60;74.40;;;;;;5091093;28;20045;-60
2023/06/07 19:52:30;;;;;;;7.22;3.15;;;20.50;74.90;;;;;;5094381;28;20044;-60
